Terminal Aerodrome Forecast
Issued by NWS Cleveland, OH

Home | Current Version | Previous Version | Graphics & Text | Print | Product List | Glossary Off
Versions: 1 2 3 4 5 6 7 8 9 10 11 12 13 14 15 16 17 18 19 20 21 22 23

000
FTUS41 KCLE 210500
TAFCAK
TAF
KCAK 210537Z 2106/2206 27006KT 4SM -DZ BR BKN004 OVC018
      TEMPO 2106/2110 2SM -DZ BR BKN006
     FM211500 32011KT 4SM BR VCSH SCT008 OVC015
     FM211900 33010G16KT 6SM HZ VCSH OVC020
     FM220200 35008KT 5SM BR VCSH OVC015=

USA.gov is the U.S. government's official web portal to all federal, state and local government web resources and services.